createdAt,value
2023-04-11T00:00:18.189Z,14.44
2023-04-11T00:03:13.784Z,14.12
2023-04-11T00:05:59.904Z,13.94
2023-04-11T00:08:45.847Z,14.26
2023-04-11T00:11:31.835Z,14.42
2023-04-11T00:14:17.720Z,14.01
2023-04-11T00:17:03.500Z,13.88
2023-04-11T00:19:49.349Z,14.01
2023-04-11T00:22:35.150Z,13.73
2023-04-11T00:25:21.155Z,13.82
2023-04-11T00:28:06.989Z,13.62
2023-04-11T00:30:52.947Z,13.73
2023-04-11T00:33:40.545Z,13.50
2023-04-11T00:36:26.840Z,13.32
2023-04-11T00:39:13.072Z,13.38
2023-04-11T00:41:59.025Z,13.20
2023-04-11T00:44:44.817Z,13.07
2023-04-11T00:47:30.710Z,12.44
2023-04-11T00:50:16.495Z,12.59
2023-04-11T00:53:02.405Z,12.80
2023-04-11T00:55:48.365Z,12.90
2023-04-11T00:58:34.162Z,12.95
2023-04-11T01:01:20.123Z,13.09
2023-04-11T01:04:06.328Z,13.24
2023-04-11T01:06:52.265Z,13.58
2023-04-11T01:09:38.130Z,13.13
2023-04-11T01:12:24.027Z,13.12
2023-04-11T01:15:09.907Z,12.79
2023-04-11T01:17:55.801Z,12.73
2023-04-11T01:20:41.654Z,12.74
2023-04-11T01:23:27.773Z,12.69
2023-04-11T01:26:13.862Z,12.79
2023-04-11T01:28:59.719Z,12.69
2023-04-11T01:31:45.510Z,12.86
2023-04-11T01:34:31.318Z,12.51
2023-04-11T01:37:17.276Z,12.27
2023-04-11T01:40:03.153Z,12.11
2023-04-11T01:42:48.956Z,12.11
2023-04-11T01:45:34.801Z,12.22
2023-04-11T01:48:20.702Z,12.17
2023-04-11T01:51:06.987Z,11.99
2023-04-11T01:53:52.874Z,11.98
2023-04-11T01:56:38.728Z,11.97
2023-04-11T01:59:24.812Z,12.07
2023-04-11T02:02:10.944Z,11.94
2023-04-11T02:04:57.191Z,11.97
2023-04-11T02:07:42.989Z,11.80
2023-04-11T02:10:28.794Z,12.27
2023-04-11T02:13:14.600Z,12.36
2023-04-11T02:16:00.637Z,12.49
2023-04-11T02:18:46.445Z,12.11
2023-04-11T02:21:32.296Z,12.04
2023-04-11T02:24:18.242Z,12.01
2023-04-11T02:27:04.040Z,12.11
2023-04-11T02:29:49.896Z,11.82
2023-04-11T02:32:35.755Z,12.11
2023-04-11T02:35:21.790Z,12.20
2023-04-11T02:38:07.591Z,12.17
2023-04-11T02:40:53.447Z,12.23
2023-04-11T02:43:39.493Z,12.02
2023-04-11T02:46:25.440Z,12.17
2023-04-11T02:49:11.335Z,11.85
2023-04-11T02:51:57.227Z,11.60
2023-04-11T02:54:43.059Z,11.67
2023-04-11T02:57:28.895Z,11.61
2023-04-11T03:00:14.807Z,11.42
2023-04-11T03:03:00.800Z,11.32
2023-04-11T03:05:46.860Z,10.90
2023-04-11T03:08:32.711Z,10.75
2023-04-11T03:11:18.676Z,10.69
2023-04-11T03:14:04.504Z,10.49
2023-04-11T03:16:50.448Z,10.95
2023-04-11T03:19:36.382Z,10.71
2023-04-11T03:22:22.237Z,11.01
2023-04-11T03:25:08.132Z,11.02
2023-04-11T03:27:54.195Z,11.10
2023-04-11T03:30:40.014Z,11.29
2023-04-11T03:33:25.955Z,11.37
2023-04-11T03:36:11.742Z,11.36
2023-04-11T03:38:57.948Z,11.47
2023-04-11T03:41:44.283Z,11.38
2023-04-11T03:44:30.267Z,11.46
2023-04-11T03:47:16.105Z,11.77
2023-04-11T03:50:01.965Z,11.63
2023-04-11T03:52:47.826Z,11.72
2023-04-11T03:55:33.707Z,11.42
2023-04-11T03:58:19.642Z,11.60
2023-04-11T04:01:05.369Z,11.33
2023-04-11T04:03:51.423Z,11.41
2023-04-11T04:06:37.471Z,10.95
2023-04-11T04:09:23.336Z,11.18
2023-04-11T04:12:09.278Z,11.66
2023-04-11T04:14:55.176Z,11.26
2023-04-11T04:17:40.941Z,11.65
2023-04-11T04:20:26.897Z,11.63
2023-04-11T04:23:12.772Z,11.41
2023-04-11T04:25:58.694Z,11.41
2023-04-11T04:28:44.533Z,11.01
2023-04-11T04:31:30.462Z,11.23
2023-04-11T04:34:16.297Z,11.60
2023-04-11T04:37:02.101Z,11.15
2023-04-11T04:39:47.952Z,11.24
2023-04-11T04:42:33.891Z,11.17
2023-04-11T04:45:19.734Z,11.03
2023-04-11T04:48:07.745Z,10.58
2023-04-11T04:50:53.770Z,10.82
2023-04-11T04:53:39.632Z,10.57
2023-04-11T04:56:25.663Z,9.74
2023-04-11T04:59:11.463Z,9.83
2023-04-11T05:01:57.389Z,9.60
2023-04-11T05:04:43.261Z,9.71
2023-04-11T05:07:29.193Z,9.93
2023-04-11T05:10:15.061Z,9.84
2023-04-11T05:13:00.809Z,9.76
2023-04-11T05:15:46.689Z,9.54
2023-04-11T05:18:32.693Z,9.77
2023-04-11T05:21:18.460Z,9.52
2023-04-11T05:24:04.292Z,8.19
2023-04-11T05:26:50.177Z,8.03
2023-04-11T05:29:36.107Z,7.41
2023-04-11T05:32:22.003Z,7.75
2023-04-11T05:35:07.846Z,7.96
2023-04-11T05:37:53.739Z,7.88
2023-04-11T05:40:39.724Z,8.52
2023-04-11T05:43:25.584Z,8.40
2023-04-11T05:46:11.550Z,8.47
2023-04-11T05:48:57.412Z,8.83
2023-04-11T05:51:43.351Z,9.18
2023-04-11T05:54:29.211Z,9.33
2023-04-11T05:57:15.028Z,9.07
2023-04-11T06:00:01.092Z,9.43
2023-04-11T06:02:46.998Z,9.55
2023-04-11T06:05:33.129Z,9.54
2023-04-11T06:08:18.880Z,9.52
2023-04-11T06:11:04.739Z,9.58
2023-04-11T06:13:50.535Z,9.71
2023-04-11T06:16:36.512Z,9.66
2023-04-11T06:19:22.370Z,9.75
2023-04-11T06:22:08.290Z,9.85
2023-04-11T06:24:54.156Z,9.67
2023-04-11T06:27:39.899Z,9.81
2023-04-11T06:30:25.814Z,9.74
2023-04-11T06:33:11.709Z,9.80
2023-04-11T06:35:58.057Z,10.01
2023-04-11T06:38:44.054Z,10.28
2023-04-11T06:41:29.783Z,10.72
2023-04-11T06:44:17.636Z,11.01
2023-04-11T06:47:03.689Z,11.34
2023-04-11T06:49:49.901Z,11.78
2023-04-11T06:52:35.814Z,11.62
2023-04-11T06:55:21.649Z,11.58
2023-04-11T06:58:07.536Z,11.59
2023-04-11T07:00:53.504Z,11.50
2023-04-11T07:03:39.483Z,11.61
2023-04-11T07:06:25.842Z,11.41
2023-04-11T07:09:11.712Z,11.61
2023-04-11T07:11:57.576Z,11.44
2023-04-11T07:14:43.388Z,11.28
2023-04-11T07:17:29.237Z,11.44
2023-04-11T07:20:15.222Z,11.46
2023-04-11T07:23:01.208Z,11.44
2023-04-11T07:25:47.143Z,11.58
2023-04-11T07:28:32.887Z,11.89
2023-04-11T07:31:18.836Z,11.87
2023-04-11T07:34:04.678Z,11.98
2023-04-11T07:36:50.583Z,11.81
2023-04-11T07:39:36.369Z,12.12
2023-04-11T07:42:22.376Z,12.19
2023-04-11T07:45:08.275Z,12.40
2023-04-11T07:47:54.161Z,12.59
2023-04-11T07:50:40.119Z,12.42
2023-04-11T07:53:26.064Z,12.25
2023-04-11T07:56:12.113Z,12.39
2023-04-11T07:58:58.027Z,12.36
2023-04-11T08:01:43.984Z,12.36
2023-04-11T08:04:30.131Z,12.33
2023-04-11T08:07:16.444Z,12.02
2023-04-11T08:10:02.246Z,11.98
2023-04-11T08:12:48.144Z,12.22
2023-04-11T08:15:34.263Z,12.41
2023-04-11T08:18:20.249Z,12.25
2023-04-11T08:21:06.279Z,11.89
2023-04-11T08:23:52.121Z,11.90
2023-04-11T08:26:38.003Z,11.76
2023-04-11T08:29:24.041Z,11.42
2023-04-11T08:32:09.882Z,11.67
2023-04-11T08:34:55.750Z,11.55
2023-04-11T08:37:41.648Z,11.85
2023-04-11T08:40:27.486Z,11.60
2023-04-11T08:43:13.517Z,11.49
2023-04-11T08:45:59.373Z,11.47
2023-04-11T08:48:45.281Z,11.04
2023-04-11T08:51:31.223Z,11.36
2023-04-11T08:54:16.969Z,11.25
2023-04-11T08:57:02.965Z,11.48
2023-04-11T08:59:48.767Z,11.41
2023-04-11T09:02:34.986Z,11.48
2023-04-11T09:05:21.236Z,11.77
2023-04-11T09:08:06.989Z,12.30
2023-04-11T09:10:52.865Z,12.01
2023-04-11T09:13:38.727Z,11.95
2023-04-11T09:16:24.628Z,12.11
2023-04-11T09:19:10.512Z,12.19
2023-04-11T09:21:56.715Z,11.87
2023-04-11T09:24:42.713Z,12.08
2023-04-11T09:27:28.673Z,12.31
2023-04-11T09:30:14.455Z,12.39
2023-04-11T09:33:00.498Z,12.59
2023-04-11T09:35:46.424Z,12.49
2023-04-11T09:38:32.347Z,12.07
2023-04-11T09:41:18.228Z,12.21
2023-04-11T09:44:04.097Z,12.00
2023-04-11T09:46:51.638Z,12.04
2023-04-11T09:49:38.191Z,12.24
2023-04-11T09:52:23.985Z,12.21
2023-04-11T09:55:09.888Z,12.20
2023-04-11T09:57:55.747Z,12.02
2023-04-11T10:00:41.653Z,10.58
2023-04-11T10:03:27.526Z,9.45
2023-04-11T10:06:13.288Z,9.15
2023-04-11T10:08:59.179Z,9.67
2023-04-11T10:11:45.120Z,8.41
2023-04-11T10:14:30.894Z,7.99
2023-04-11T10:17:20.599Z,9.16
2023-04-11T10:20:08.465Z,8.58
2023-04-11T10:22:54.368Z,7.89
2023-04-11T10:25:40.278Z,8.48
2023-04-11T10:28:26.416Z,9.34
2023-04-11T10:31:12.313Z,10.24
2023-04-11T10:33:58.389Z,10.56
2023-04-11T10:36:44.735Z,10.21
2023-04-11T10:39:30.700Z,9.65
2023-04-11T10:42:16.815Z,8.93
2023-04-11T10:45:02.824Z,10.14
2023-04-11T10:47:48.834Z,10.20
2023-04-11T10:50:34.631Z,10.19
2023-04-11T10:53:20.492Z,11.13
2023-04-11T10:56:06.353Z,11.24
2023-04-11T10:58:54.290Z,11.45
2023-04-11T11:04:28.718Z,11.66
2023-04-11T11:07:14.920Z,11.63
2023-04-11T11:10:00.884Z,11.15
2023-04-11T11:12:46.861Z,11.26
2023-04-11T11:15:32.834Z,11.59
2023-04-11T11:18:18.742Z,11.22
2023-04-11T11:21:05.730Z,11.53
2023-04-11T11:23:52.103Z,11.81
2023-04-11T11:26:37.811Z,11.26
2023-04-11T11:29:23.655Z,11.37
2023-04-11T11:32:09.477Z,11.54
2023-04-11T11:34:55.583Z,11.86
2023-04-11T11:37:41.879Z,11.84
2023-04-11T11:40:27.787Z,12.08
2023-04-11T11:43:13.801Z,12.29
2023-04-11T11:45:59.819Z,12.45
2023-04-11T11:48:45.755Z,12.26
2023-04-11T11:51:31.709Z,12.03
2023-04-11T11:54:17.554Z,12.09
2023-04-11T11:57:03.501Z,11.78
2023-04-11T11:59:49.456Z,11.89
2023-04-11T12:02:35.561Z,11.73
2023-04-11T12:05:21.846Z,11.54
2023-04-11T12:08:07.890Z,11.94
2023-04-11T12:10:53.908Z,12.39
2023-04-11T12:13:39.899Z,12.61
2023-04-11T12:16:25.659Z,12.44
2023-04-11T12:19:11.913Z,12.57
2023-04-11T12:21:57.801Z,12.88
2023-04-11T12:24:43.591Z,12.49
2023-04-11T12:27:29.530Z,11.88
2023-04-11T12:30:15.601Z,11.62
2023-04-11T12:33:01.726Z,11.83
2023-04-11T12:35:47.647Z,11.93
2023-04-11T12:38:33.654Z,11.85
2023-04-11T12:41:32.212Z,11.55
2023-04-11T12:44:18.577Z,11.47
2023-04-11T12:47:04.546Z,11.16
2023-04-11T12:49:50.519Z,11.18
2023-04-11T12:52:36.344Z,11.14
2023-04-11T12:55:22.259Z,10.97
2023-04-11T12:58:08.237Z,10.66
2023-04-11T13:00:54.024Z,10.27
2023-04-11T13:03:39.935Z,10.46
2023-04-11T13:06:26.150Z,10.90
2023-04-11T13:09:12.090Z,11.22
2023-04-11T13:11:58.076Z,11.39
2023-04-11T13:14:43.739Z,11.99
2023-04-11T13:17:29.743Z,12.23
2023-04-11T13:20:15.772Z,12.40
2023-04-11T13:23:01.525Z,12.72
2023-04-11T13:25:47.436Z,12.92
2023-04-11T13:28:33.260Z,12.96
2023-04-11T13:31:19.134Z,12.70
2023-04-11T13:34:05.247Z,12.38
2023-04-11T13:36:50.969Z,12.05
2023-04-11T13:39:36.869Z,10.81
2023-04-11T13:42:22.766Z,9.23
2023-04-11T13:45:08.586Z,8.55
2023-04-11T13:47:54.612Z,8.75
2023-04-11T13:50:40.447Z,8.01
2023-04-11T13:53:26.418Z,7.73
2023-04-11T13:56:12.338Z,8.66
2023-04-11T13:58:58.360Z,8.99
2023-04-11T14:01:44.711Z,8.69
2023-04-11T14:04:30.696Z,9.31
2023-04-11T14:07:16.653Z,9.27
2023-04-11T14:10:02.453Z,9.11
2023-04-11T14:12:48.416Z,9.42
2023-04-11T14:15:34.403Z,9.63
2023-04-11T14:18:20.397Z,9.27
2023-04-11T14:21:06.075Z,9.84
2023-04-11T14:23:52.001Z,9.62
2023-04-11T14:26:37.871Z,9.67
2023-04-11T14:29:23.761Z,9.78
2023-04-11T14:32:09.662Z,9.88
2023-04-11T14:34:55.668Z,10.36
2023-04-11T14:37:41.617Z,10.47
2023-04-11T14:40:27.491Z,9.54
2023-04-11T14:43:13.335Z,10.03
2023-04-11T14:45:59.254Z,10.42
2023-04-11T14:48:45.127Z,11.25
2023-04-11T14:51:31.064Z,11.38
2023-04-11T14:54:16.969Z,11.56
2023-04-11T14:57:02.861Z,11.74
2023-04-11T14:59:48.650Z,12.02
2023-04-11T15:02:34.653Z,12.64
2023-04-11T15:05:20.809Z,12.42
2023-04-11T15:08:06.672Z,12.51
2023-04-11T15:10:52.512Z,12.72
2023-04-11T15:13:38.320Z,12.49
2023-04-11T15:16:24.327Z,10.67
2023-04-11T15:19:10.316Z,10.54
2023-04-11T15:21:56.269Z,11.65
2023-04-11T15:24:42.028Z,12.21
2023-04-11T15:27:27.950Z,11.97
2023-04-11T15:30:13.953Z,12.36
2023-04-11T15:32:59.800Z,12.74
2023-04-11T15:35:45.776Z,13.02
2023-04-11T15:38:31.770Z,13.37
2023-04-11T15:41:17.539Z,13.54
2023-04-11T15:44:03.364Z,13.44
2023-04-11T15:46:49.599Z,13.48
2023-04-11T15:49:35.673Z,12.85
2023-04-11T15:52:21.537Z,13.56
2023-04-11T15:55:07.340Z,13.56
2023-04-11T15:57:53.147Z,13.81
2023-04-11T16:00:39.071Z,13.94
2023-04-11T16:03:25.084Z,14.23
2023-04-11T16:06:11.400Z,14.39
2023-04-11T16:08:57.266Z,14.56
2023-04-11T16:11:43.185Z,14.74
2023-04-11T16:14:29.105Z,13.79
2023-04-11T16:17:14.920Z,13.31
2023-04-11T16:20:00.884Z,13.87
2023-04-11T16:22:46.869Z,13.67
2023-04-11T16:25:32.690Z,12.88
2023-04-11T16:28:18.712Z,12.49
2023-04-11T16:31:04.683Z,12.35
2023-04-11T16:33:50.620Z,12.08
2023-04-11T16:36:36.556Z,11.15
2023-04-11T16:39:22.894Z,12.20
2023-04-11T16:42:08.730Z,12.35
2023-04-11T16:44:54.602Z,12.77
2023-04-11T16:47:40.663Z,12.17
2023-04-11T16:50:26.691Z,12.82
2023-04-11T16:53:12.567Z,12.82
2023-04-11T16:55:58.438Z,11.41
2023-04-11T16:58:44.806Z,11.00
2023-04-11T17:01:30.775Z,12.18
2023-04-11T17:04:16.945Z,12.87
2023-04-11T17:07:03.297Z,13.37
2023-04-11T17:09:49.155Z,13.71
2023-04-11T17:12:35.089Z,14.03
2023-04-11T17:15:20.886Z,14.31
2023-04-11T17:18:06.869Z,14.64
2023-04-11T17:20:52.757Z,14.78
2023-04-11T17:23:42.398Z,14.48
2023-04-11T17:26:29.155Z,14.59
2023-04-11T17:29:15.236Z,14.27
2023-04-11T17:32:01.043Z,14.28
2023-04-11T17:34:47.153Z,14.23
2023-04-11T17:37:33.074Z,14.23
2023-04-11T17:40:18.944Z,14.23
2023-04-11T17:43:04.992Z,14.31
2023-04-11T17:45:50.974Z,14.41
2023-04-11T17:48:36.835Z,14.35
2023-04-11T17:51:22.859Z,14.36
2023-04-11T17:54:08.980Z,14.33
2023-04-11T17:56:54.958Z,14.49
2023-04-11T17:59:40.972Z,14.55
2023-04-11T18:02:26.929Z,14.15
2023-04-11T18:05:20.678Z,14.23
2023-04-11T18:08:10.160Z,14.24
2023-04-11T18:10:55.992Z,14.15
2023-04-11T18:13:41.823Z,14.12
2023-04-11T18:16:27.909Z,13.89
2023-04-11T18:19:14.173Z,14.06
2023-04-11T18:22:00.035Z,13.88
2023-04-11T18:24:46.062Z,13.76
2023-04-11T18:27:31.951Z,13.76
2023-04-11T18:30:17.842Z,13.62
2023-04-11T18:33:03.834Z,13.56
2023-04-11T18:35:49.872Z,13.30
2023-04-11T18:38:35.925Z,13.02
2023-04-11T18:41:21.889Z,13.24
2023-04-11T18:44:09.727Z,13.14
2023-04-11T18:46:57.802Z,13.33
2023-04-11T18:49:46.590Z,13.39
2023-04-11T18:52:32.843Z,13.26
2023-04-11T18:55:18.925Z,13.06
2023-04-11T18:58:07.850Z,13.43
2023-04-11T19:00:55.032Z,13.45
2023-04-11T19:03:41.185Z,13.53
2023-04-11T19:06:27.504Z,13.75
2023-04-11T19:09:13.440Z,13.82
2023-04-11T19:11:59.287Z,13.61
2023-04-11T19:14:45.101Z,13.70
2023-04-11T19:17:31.029Z,13.76
2023-04-11T19:20:16.928Z,13.74
2023-04-11T19:23:02.962Z,13.48
2023-04-11T19:25:48.690Z,13.39
2023-04-11T19:28:34.573Z,13.41
2023-04-11T19:31:20.574Z,13.26
2023-04-11T19:34:06.460Z,13.27
2023-04-11T19:36:52.472Z,13.03
2023-04-11T19:39:38.428Z,12.69
2023-04-11T19:42:24.328Z,13.08
2023-04-11T19:45:10.293Z,12.94
2023-04-11T19:47:56.231Z,12.37
2023-04-11T19:50:42.235Z,12.26
2023-04-11T19:53:28.127Z,12.46
2023-04-11T19:56:13.912Z,12.17
2023-04-11T19:58:59.761Z,12.16
2023-04-11T20:01:47.887Z,12.09
2023-04-11T20:04:33.962Z,12.22
2023-04-11T20:07:19.962Z,12.25
2023-04-11T20:10:05.825Z,12.13
2023-04-11T20:12:51.649Z,12.43
2023-04-11T20:15:37.623Z,12.37
2023-04-11T20:18:23.413Z,12.02
2023-04-11T20:21:09.399Z,12.41
2023-04-11T20:23:55.493Z,12.48
2023-04-11T20:26:42.161Z,12.70
2023-04-11T20:29:29.679Z,12.75
2023-04-11T20:32:16.971Z,12.68
2023-04-11T20:35:02.919Z,12.67
2023-04-11T20:37:48.956Z,12.75
2023-04-11T20:40:34.845Z,13.01
2023-04-11T20:43:20.822Z,12.76
2023-04-11T20:46:06.834Z,12.73
2023-04-11T20:48:52.696Z,12.78
2023-04-11T20:51:39.100Z,12.90
2023-04-11T20:54:25.133Z,12.87
2023-04-11T20:57:11.164Z,12.59
2023-04-11T20:59:57.152Z,12.41
2023-04-11T21:02:43.335Z,11.67
2023-04-11T21:05:29.564Z,11.85
2023-04-11T21:08:15.547Z,11.67
2023-04-11T21:11:01.246Z,11.97
2023-04-11T21:13:47.245Z,11.93
2023-04-11T21:16:33.118Z,11.98
2023-04-11T21:19:18.833Z,11.97
2023-04-11T21:22:04.733Z,11.88
2023-04-11T21:24:50.495Z,11.76
2023-04-11T21:27:36.448Z,11.88
2023-04-11T21:30:22.450Z,11.86
2023-04-11T21:33:08.259Z,11.74
2023-04-11T21:35:54.500Z,11.37
2023-04-11T21:38:40.531Z,11.56
2023-04-11T21:41:26.372Z,11.31
2023-04-11T21:44:12.164Z,11.62
2023-04-11T21:46:58.042Z,11.53
2023-04-11T21:49:43.830Z,11.83
2023-04-11T21:52:29.684Z,11.89
2023-04-11T21:55:15.439Z,12.02
2023-04-11T21:58:03.346Z,11.88
2023-04-11T22:00:49.274Z,12.08
2023-04-11T22:03:35.105Z,11.99
2023-04-11T22:06:21.363Z,12.01
2023-04-11T22:09:07.358Z,12.10
2023-04-11T22:11:53.121Z,12.14
2023-04-11T22:14:39.012Z,11.94
2023-04-11T22:17:24.899Z,11.82
2023-04-11T22:20:11.058Z,12.13
2023-04-11T22:22:57.020Z,11.78
2023-04-11T22:25:42.776Z,11.63
2023-04-11T22:28:28.749Z,11.96
2023-04-11T22:31:14.643Z,11.44
2023-04-11T22:34:00.613Z,11.82
2023-04-11T22:36:46.467Z,11.85
2023-04-11T22:39:32.238Z,12.01
2023-04-11T22:42:19.168Z,11.79
2023-04-11T22:45:05.277Z,11.38
2023-04-11T22:47:51.093Z,11.88
2023-04-11T22:50:37.022Z,11.94
2023-04-11T22:53:22.943Z,12.00
2023-04-11T22:56:08.681Z,12.08
2023-04-11T22:58:54.497Z,12.14
2023-04-11T23:01:40.465Z,12.17
2023-04-11T23:04:26.749Z,12.08
2023-04-11T23:07:12.710Z,12.25
2023-04-11T23:10:00.550Z,12.15
2023-04-11T23:12:46.469Z,12.22
2023-04-11T23:15:32.337Z,12.26
2023-04-11T23:18:18.125Z,12.44
2023-04-11T23:21:03.971Z,12.52
2023-04-11T23:23:49.900Z,12.39
2023-04-11T23:26:35.791Z,12.54
2023-04-11T23:29:21.663Z,12.72
2023-04-11T23:32:07.482Z,12.70
2023-04-11T23:34:53.488Z,12.83
2023-04-11T23:37:41.380Z,12.38
2023-04-11T23:40:27.159Z,12.36
2023-04-11T23:43:13.125Z,12.33
2023-04-11T23:45:59.187Z,12.41
2023-04-11T23:48:45.069Z,11.99
2023-04-11T23:51:31.075Z,12.18
2023-04-11T23:54:16.771Z,12.33
2023-04-11T23:57:02.563Z,12.28
2023-04-11T23:59:48.444Z,12.51
